Kelly, North Carolina
Current Conditions -  °F | °C
As of 3:35 PM on Friday 21 Nov 2014 (Local Time) from KEYF Reporting Station
Clear Clear  
Wind Chill: 55°   Ceiling: Unl
Heat Index: 55°   Visibility: 10mi
Dew Point: 15°   Wind: 0mph
Humidity: 20%   Direction: NA
Pressure: 30.41"   Gusts: NA
Location:  34.47°N, 78.32°W
Report Text: KEYF 212035Z AUTO 00000KT 10SM CLR 13/M10 A3041 RMK AO2 T01281096
Loading
Personal Weather Stations






























Interactive Weather Map New forecast layout! Learn more

10-Day Weather Forecast

Advertisements
Track Severe Weather on mobile